RUK2196 EGCC-LEXJ
Flight info
| Callsign | RUK2196 |
|---|---|
| Flight time | 1h 43m |
| Altitude | 23000 |
| Route | ASMIM DCT NOKIN P17 BEPHE/N0439F360 DCT OSSEP DCT ELNIF DCT ZESPE DCT DAWLY DCT BHD DCT SALCO/N0435F370 DCT NENEM/N0336F190 Q42 XORNA |
| Aircraft | B738/M-SDE2E3FGHIRWXY/LB1 |
Departure
| Time | 2026-04-21 01:45 |
|---|---|
| Airport | Manchester Airport (EGCC) |
Arrival
| Time | 2026-04-21 03:29 |
|---|---|
| Airport | Seve Ballesteros-Santander Airport (LEXJ) |
| Time | Latitude | Longitude | Altitude | Speed | Heading |
|---|---|---|---|---|---|
| 2026-04-21 01:17 | 53.35951 | -2.27138 | 260 ft | 0 kts | 89° |
| 2026-04-21 01:35 | 53.35951 | -2.27148 | 259 ft | 2 kts | 81° |
| 2026-04-21 01:36 | 53.35947 | -2.27173 | 259 ft | 2 kts | 77° |
| 2026-04-21 01:36 | 53.35944 | -2.27199 | 259 ft | 2 kts | 90° |
| 2026-04-21 01:36 | 53.35949 | -2.27223 | 259 ft | 2 kts | 132° |
| 2026-04-21 01:36 | 53.35962 | -2.27236 | 259 ft | 1 kts | 169° |
| 2026-04-21 01:37 | 53.35969 | -2.27237 | 259 ft | 1 kts | 184° |
| 2026-04-21 01:37 | 53.35973 | -2.27237 | 259 ft | 0 kts | 179° |
| 2026-04-21 01:39 | 53.35965 | -2.27237 | 259 ft | 2 kts | 179° |
| 2026-04-21 01:39 | 53.35934 | -2.27234 | 259 ft | 6 kts | 176° |
| 2026-04-21 01:40 | 53.35881 | -2.27223 | 259 ft | 5 kts | 172° |
| 2026-04-21 01:40 | 53.35846 | -2.27223 | 259 ft | 4 kts | 204° |
| 2026-04-21 01:40 | 53.35814 | -2.27272 | 259 ft | 9 kts | 222° |
| 2026-04-21 01:40 | 53.35762 | -2.27375 | 259 ft | 14 kts | 232° |
| 2026-04-21 01:41 | 53.35693 | -2.27516 | 259 ft | 17 kts | 231° |
| 2026-04-21 01:41 | 53.35605 | -2.27677 | 259 ft | 19 kts | 223° |
| 2026-04-21 01:41 | 53.35499 | -2.27851 | 259 ft | 22 kts | 224° |
| 2026-04-21 01:41 | 53.35376 | -2.28049 | 259 ft | 24 kts | 225° |
| 2026-04-21 01:42 | 53.35250 | -2.28263 | 259 ft | 25 kts | 230° |
| 2026-04-21 01:42 | 53.35136 | -2.28496 | 259 ft | 24 kts | 234° |
| 2026-04-21 01:42 | 53.35025 | -2.28719 | 259 ft | 23 kts | 226° |
| 2026-04-21 01:42 | 53.34918 | -2.28908 | 259 ft | 19 kts | 227° |
| 2026-04-21 01:43 | 53.34847 | -2.29034 | 259 ft | 12 kts | 226° |
| 2026-04-21 01:43 | 53.34810 | -2.29077 | 259 ft | 0 kts | 193° |
| 2026-04-21 01:44 | 53.34790 | -2.29079 | 259 ft | 5 kts | 179° |
| 2026-04-21 01:44 | 53.34736 | -2.29065 | 259 ft | 10 kts | 166° |
| 2026-04-21 01:44 | 53.34681 | -2.29004 | 259 ft | 7 kts | 115° |
| 2026-04-21 01:44 | 53.34698 | -2.28901 | 259 ft | 12 kts | 61° |
| 2026-04-21 01:45 | 53.34898 | -2.28484 | 259 ft | 80 kts | 51° |
| 2026-04-21 01:45 | 53.35392 | -2.27460 | 260 ft | 139 kts | 50° |
| 2026-04-21 01:45 | 53.36100 | -2.25999 | 502 ft | 166 kts | 51° |
| 2026-04-21 01:45 | 53.36837 | -2.24519 | 1087 ft | 172 kts | 50° |
| 2026-04-21 01:46 | 53.37596 | -2.22982 | 1831 ft | 168 kts | 51° |
| 2026-04-21 01:46 | 53.38341 | -2.21532 | 2456 ft | 166 kts | 46° |
| 2026-04-21 01:46 | 53.39519 | -2.20705 | 2601 ft | 203 kts | 3° |
| 2026-04-21 01:46 | 53.40886 | -2.21626 | 3110 ft | 225 kts | 320° |
| 2026-04-21 01:47 | 53.41728 | -2.23900 | 3829 ft | 231 kts | 297° |
| 2026-04-21 01:47 | 53.42435 | -2.26429 | 4300 ft | 246 kts | 299° |
| 2026-04-21 01:47 | 53.43236 | -2.29149 | 4619 ft | 267 kts | 299° |
| 2026-04-21 01:47 | 53.44083 | -2.32054 | 4999 ft | 279 kts | 298° |
| 2026-04-21 01:48 | 53.44947 | -2.35002 | 4982 ft | 280 kts | 300° |
| 2026-04-21 01:48 | 53.45847 | -2.37957 | 4998 ft | 276 kts | 300° |
| 2026-04-21 01:48 | 53.46677 | -2.40900 | 4996 ft | 279 kts | 291° |
| 2026-04-21 01:48 | 53.46938 | -2.44182 | 4998 ft | 282 kts | 265° |
| 2026-04-21 01:49 | 53.46618 | -2.47459 | 5014 ft | 282 kts | 259° |
| 2026-04-21 01:49 | 53.46234 | -2.50724 | 4993 ft | 282 kts | 259° |
| 2026-04-21 01:49 | 53.45861 | -2.53996 | 4996 ft | 281 kts | 259° |
| 2026-04-21 01:49 | 53.45492 | -2.57284 | 4998 ft | 282 kts | 259° |
| 2026-04-21 01:50 | 53.45128 | -2.60568 | 4997 ft | 282 kts | 259° |
| 2026-04-21 01:50 | 53.44583 | -2.63764 | 4982 ft | 281 kts | 241° |
| 2026-04-21 01:50 | 53.43250 | -2.66153 | 5125 ft | 279 kts | 204° |
| 2026-04-21 01:50 | 53.41463 | -2.67238 | 6007 ft | 272 kts | 195° |
| 2026-04-21 01:51 | 53.39656 | -2.68347 | 6630 ft | 279 kts | 197° |
| 2026-04-21 01:51 | 53.37816 | -2.69522 | 7399 ft | 280 kts | 198° |
| 2026-04-21 01:51 | 53.35965 | -2.70695 | 8108 ft | 284 kts | 197° |
| 2026-04-21 01:51 | 53.34082 | -2.71879 | 8878 ft | 285 kts | 198° |
| 2026-04-21 01:52 | 53.32214 | -2.73049 | 9608 ft | 288 kts | 198° |
| 2026-04-21 01:52 | 53.28375 | -2.75435 | 10805 ft | 304 kts | 198° |
| 2026-04-21 01:52 | 53.26259 | -2.76751 | 11038 ft | 325 kts | 199° |
| 2026-04-21 01:53 | 53.24095 | -2.78099 | 11713 ft | 330 kts | 199° |
| 2026-04-21 01:53 | 53.21893 | -2.79466 | 12372 ft | 335 kts | 199° |
| 2026-04-21 01:53 | 53.19681 | -2.80840 | 13113 ft | 338 kts | 199° |
| 2026-04-21 01:53 | 53.17448 | -2.82226 | 13836 ft | 341 kts | 200° |
| 2026-04-21 01:54 | 53.15156 | -2.83645 | 14563 ft | 344 kts | 200° |
| 2026-04-21 01:54 | 53.12897 | -2.85042 | 15280 ft | 347 kts | 200° |
| 2026-04-21 01:54 | 53.10584 | -2.86464 | 15963 ft | 351 kts | 199° |
| 2026-04-21 01:54 | 53.08170 | -2.87511 | 16621 ft | 356 kts | 189° |
| 2026-04-21 01:55 | 53.05609 | -2.87680 | 17280 ft | 360 kts | 175° |
| 2026-04-21 01:55 | 53.03079 | -2.87073 | 17988 ft | 363 kts | 171° |
| 2026-04-21 01:55 | 53.00563 | -2.86327 | 18611 ft | 367 kts | 171° |
| 2026-04-21 01:55 | 52.97960 | -2.85572 | 19167 ft | 372 kts | 172° |
| 2026-04-21 01:56 | 52.95339 | -2.84847 | 19769 ft | 376 kts | 172° |
| 2026-04-21 01:56 | 52.92696 | -2.84140 | 20335 ft | 381 kts | 173° |
| 2026-04-21 01:56 | 52.90035 | -2.83435 | 20882 ft | 385 kts | 173° |
| 2026-04-21 01:56 | 52.87333 | -2.82719 | 21436 ft | 389 kts | 173° |
| 2026-04-21 01:57 | 52.84558 | -2.81980 | 21959 ft | 394 kts | 173° |
| 2026-04-21 01:57 | 52.81800 | -2.81244 | 22466 ft | 398 kts | 173° |
| 2026-04-21 01:57 | 52.79008 | -2.80497 | 22982 ft | 402 kts | 174° |
| 2026-04-21 01:57 | 52.76166 | -2.79737 | 23450 ft | 406 kts | 174° |
| 2026-04-21 01:58 | 52.73324 | -2.78978 | 23937 ft | 410 kts | 174° |
| 2026-04-21 01:58 | 52.70423 | -2.78202 | 24407 ft | 414 kts | 174° |
| 2026-04-21 01:58 | 52.67515 | -2.77426 | 24859 ft | 418 kts | 175° |
| 2026-04-21 01:58 | 52.64584 | -2.76673 | 25307 ft | 421 kts | 177° |
| 2026-04-21 01:59 | 52.61588 | -2.76232 | 25749 ft | 421 kts | 183° |
| 2026-04-21 01:59 | 52.58642 | -2.76244 | 26176 ft | 422 kts | 186° |
| 2026-04-21 01:59 | 52.55632 | -2.76417 | 26626 ft | 424 kts | 187° |
| 2026-04-21 01:59 | 52.52620 | -2.76627 | 27022 ft | 428 kts | 188° |
| 2026-04-21 02:00 | 52.49550 | -2.76860 | 27445 ft | 430 kts | 188° |
| 2026-04-21 02:00 | 52.46516 | -2.77098 | 27839 ft | 433 kts | 188° |
| 2026-04-21 02:00 | 52.43438 | -2.77347 | 28225 ft | 437 kts | 189° |
| 2026-04-21 02:00 | 52.40331 | -2.77605 | 28607 ft | 439 kts | 189° |
| 2026-04-21 02:01 | 52.37184 | -2.77869 | 28992 ft | 442 kts | 189° |
| 2026-04-21 02:01 | 52.34081 | -2.78131 | 29343 ft | 445 kts | 189° |
| 2026-04-21 02:01 | 52.30901 | -2.78402 | 29705 ft | 448 kts | 189° |
| 2026-04-21 02:01 | 52.27715 | -2.78673 | 30041 ft | 451 kts | 190° |
| 2026-04-21 02:02 | 52.24514 | -2.78950 | 30401 ft | 453 kts | 190° |
| 2026-04-21 02:02 | 52.21303 | -2.79231 | 30808 ft | 454 kts | 189° |
| 2026-04-21 02:02 | 52.18115 | -2.79507 | 31249 ft | 454 kts | 189° |
| 2026-04-21 02:02 | 52.14894 | -2.79785 | 31700 ft | 453 kts | 189° |
| 2026-04-21 02:03 | 52.11651 | -2.80062 | 32188 ft | 451 kts | 189° |
| 2026-04-21 02:03 | 52.08469 | -2.80335 | 32625 ft | 450 kts | 189° |
| 2026-04-21 02:03 | 52.05292 | -2.80606 | 33106 ft | 448 kts | 189° |
| 2026-04-21 02:03 | 52.02156 | -2.80872 | 33506 ft | 447 kts | 189° |
| 2026-04-21 02:04 | 51.98961 | -2.81143 | 33950 ft | 446 kts | 189° |
| 2026-04-21 02:04 | 51.95813 | -2.81396 | 34323 ft | 445 kts | 189° |
| 2026-04-21 02:04 | 51.92657 | -2.81669 | 34719 ft | 444 kts | 189° |
| 2026-04-21 02:04 | 51.89547 | -2.81942 | 35100 ft | 443 kts | 188° |
| 2026-04-21 02:05 | 51.86411 | -2.82213 | 35450 ft | 443 kts | 188° |
| 2026-04-21 02:05 | 51.83327 | -2.82614 | 35817 ft | 439 kts | 192° |
| 2026-04-21 02:05 | 51.80251 | -2.83271 | 36143 ft | 437 kts | 193° |
| 2026-04-21 02:05 | 51.77130 | -2.83982 | 36374 ft | 439 kts | 193° |
| 2026-04-21 02:06 | 51.74090 | -2.84664 | 36730 ft | 438 kts | 192° |
| 2026-04-21 02:06 | 51.71031 | -2.85343 | 37048 ft | 437 kts | 192° |
| 2026-04-21 02:06 | 51.67961 | -2.86017 | 37305 ft | 437 kts | 192° |
| 2026-04-21 02:07 | 51.61804 | -2.87341 | 37308 ft | 436 kts | 192° |
| 2026-04-21 02:07 | 51.55751 | -2.88964 | 37299 ft | 429 kts | 199° |
| 2026-04-21 02:08 | 51.49992 | -2.92013 | 37294 ft | 427 kts | 204° |
| 2026-04-21 02:08 | 51.44329 | -2.95358 | 37297 ft | 427 kts | 205° |
| 2026-04-21 02:09 | 51.38634 | -2.98747 | 37301 ft | 427 kts | 205° |
| 2026-04-21 02:09 | 51.32952 | -3.02133 | 37305 ft | 427 kts | 205° |
| 2026-04-21 02:10 | 51.27280 | -3.05502 | 37309 ft | 427 kts | 205° |
| 2026-04-21 02:10 | 51.21596 | -3.08876 | 37312 ft | 427 kts | 205° |
| 2026-04-21 02:11 | 51.15935 | -3.12231 | 37316 ft | 427 kts | 205° |
| 2026-04-21 02:11 | 51.10269 | -3.15579 | 37317 ft | 427 kts | 205° |
| 2026-04-21 02:12 | 51.04586 | -3.18929 | 37317 ft | 428 kts | 205° |
| 2026-04-21 02:12 | 50.98857 | -3.22297 | 37311 ft | 428 kts | 205° |
| 2026-04-21 02:13 | 50.93176 | -3.25626 | 37301 ft | 427 kts | 205° |
| 2026-04-21 02:13 | 50.87493 | -3.28951 | 37291 ft | 426 kts | 205° |
| 2026-04-21 02:14 | 50.81836 | -3.32249 | 37290 ft | 426 kts | 205° |
| 2026-04-21 02:14 | 50.76166 | -3.35550 | 37290 ft | 427 kts | 205° |
| 2026-04-21 02:15 | 50.70437 | -3.38877 | 37290 ft | 427 kts | 205° |
| 2026-04-21 02:15 | 50.64735 | -3.42178 | 37290 ft | 427 kts | 205° |
| 2026-04-21 02:16 | 50.58926 | -3.45325 | 37289 ft | 430 kts | 201° |
| 2026-04-21 02:16 | 50.52884 | -3.47031 | 37292 ft | 435 kts | 192° |
| 2026-04-21 02:17 | 50.46778 | -3.48133 | 37290 ft | 436 kts | 191° |
| 2026-04-21 02:17 | 50.40651 | -3.49200 | 37290 ft | 436 kts | 191° |
| 2026-04-21 02:18 | 50.34460 | -3.49777 | 37277 ft | 439 kts | 187° |
| 2026-04-21 02:18 | 50.28277 | -3.50063 | 37255 ft | 438 kts | 187° |
| 2026-04-21 02:19 | 50.22065 | -3.50373 | 37236 ft | 438 kts | 187° |
| 2026-04-21 02:19 | 50.15831 | -3.50698 | 37236 ft | 439 kts | 187° |
| 2026-04-21 02:20 | 50.09661 | -3.51023 | 37236 ft | 439 kts | 187° |
| 2026-04-21 02:20 | 50.03420 | -3.51356 | 37236 ft | 439 kts | 187° |
| 2026-04-21 02:21 | 49.97234 | -3.51690 | 37236 ft | 439 kts | 187° |
| 2026-04-21 02:21 | 49.91018 | -3.52024 | 37236 ft | 438 kts | 187° |
| 2026-04-21 02:22 | 49.84828 | -3.52357 | 37226 ft | 438 kts | 187° |
| 2026-04-21 02:22 | 49.78649 | -3.52689 | 37216 ft | 438 kts | 187° |
| 2026-04-21 02:23 | 49.72467 | -3.52968 | 37208 ft | 440 kts | 184° |
| 2026-04-21 02:23 | 49.66209 | -3.52526 | 37209 ft | 441 kts | 182° |
| 2026-04-21 02:24 | 49.59985 | -3.52003 | 37208 ft | 441 kts | 182° |
| 2026-04-21 02:24 | 49.53761 | -3.51511 | 37209 ft | 440 kts | 182° |
| 2026-04-21 02:25 | 49.47554 | -3.51037 | 37209 ft | 440 kts | 182° |
| 2026-04-21 02:25 | 49.41324 | -3.50570 | 37209 ft | 440 kts | 182° |
| 2026-04-21 02:26 | 49.35137 | -3.50112 | 37209 ft | 440 kts | 182° |
| 2026-04-21 02:26 | 49.28928 | -3.49656 | 37209 ft | 440 kts | 182° |
| 2026-04-21 02:27 | 49.22767 | -3.49205 | 37196 ft | 439 kts | 182° |
| 2026-04-21 02:27 | 49.16565 | -3.48754 | 37175 ft | 439 kts | 182° |
| 2026-04-21 02:28 | 49.10382 | -3.48305 | 37155 ft | 438 kts | 182° |
| 2026-04-21 02:28 | 49.04220 | -3.47859 | 37155 ft | 438 kts | 182° |
| 2026-04-21 02:29 | 48.98026 | -3.47412 | 37155 ft | 438 kts | 182° |
| 2026-04-21 02:29 | 48.91885 | -3.46971 | 37155 ft | 438 kts | 182° |
| 2026-04-21 02:30 | 48.85681 | -3.46525 | 37155 ft | 438 kts | 182° |
| 2026-04-21 02:30 | 48.79552 | -3.46086 | 37155 ft | 437 kts | 182° |
| 2026-04-21 02:31 | 48.73388 | -3.45646 | 37155 ft | 437 kts | 182° |
| 2026-04-21 02:31 | 48.67238 | -3.45210 | 37154 ft | 436 kts | 182° |
| 2026-04-21 02:32 | 48.61144 | -3.44776 | 37155 ft | 435 kts | 182° |
| 2026-04-21 02:32 | 48.54980 | -3.44338 | 37142 ft | 436 kts | 182° |
| 2026-04-21 02:33 | 48.48836 | -3.43903 | 37132 ft | 435 kts | 182° |
| 2026-04-21 02:33 | 48.42699 | -3.43470 | 37128 ft | 435 kts | 182° |
| 2026-04-21 02:34 | 48.36560 | -3.43038 | 37128 ft | 435 kts | 182° |
| 2026-04-21 02:34 | 48.30431 | -3.42607 | 37128 ft | 434 kts | 182° |
| 2026-04-21 02:35 | 48.24287 | -3.42177 | 37128 ft | 435 kts | 182° |
| 2026-04-21 02:35 | 48.18159 | -3.41749 | 37128 ft | 435 kts | 182° |
| 2026-04-21 02:36 | 48.12043 | -3.41325 | 37128 ft | 435 kts | 182° |
| 2026-04-21 02:36 | 48.05907 | -3.40897 | 37128 ft | 435 kts | 182° |
| 2026-04-21 02:37 | 47.99766 | -3.40470 | 37128 ft | 435 kts | 182° |
| 2026-04-21 02:37 | 47.93618 | -3.40040 | 37118 ft | 433 kts | 182° |
| 2026-04-21 02:38 | 47.87523 | -3.39620 | 37109 ft | 432 kts | 182° |
| 2026-04-21 02:38 | 47.81428 | -3.39202 | 37101 ft | 433 kts | 182° |
| 2026-04-21 02:39 | 47.75308 | -3.38782 | 37101 ft | 432 kts | 182° |
| 2026-04-21 02:39 | 47.69191 | -3.38362 | 37101 ft | 432 kts | 182° |
| 2026-04-21 02:40 | 47.63078 | -3.37944 | 37101 ft | 432 kts | 182° |
| 2026-04-21 02:40 | 47.56961 | -3.37527 | 37101 ft | 432 kts | 182° |
| 2026-04-21 02:41 | 47.50849 | -3.37107 | 37101 ft | 431 kts | 182° |
| 2026-04-21 02:41 | 47.44742 | -3.36694 | 37101 ft | 432 kts | 182° |
| 2026-04-21 02:42 | 47.38637 | -3.36281 | 37101 ft | 432 kts | 182° |
| 2026-04-21 02:42 | 47.32522 | -3.35868 | 37100 ft | 431 kts | 182° |
| 2026-04-21 02:43 | 47.26450 | -3.35458 | 37101 ft | 431 kts | 182° |
| 2026-04-21 02:43 | 47.20373 | -3.35050 | 37101 ft | 431 kts | 182° |
| 2026-04-21 02:44 | 47.14252 | -3.34636 | 37101 ft | 430 kts | 182° |
| 2026-04-21 02:44 | 47.08183 | -3.34230 | 37101 ft | 430 kts | 182° |
| 2026-04-21 02:45 | 47.02121 | -3.33826 | 37101 ft | 430 kts | 182° |
| 2026-04-21 02:45 | 46.96037 | -3.33420 | 37100 ft | 430 kts | 182° |
| 2026-04-21 02:46 | 46.89972 | -3.33017 | 37101 ft | 429 kts | 182° |
| 2026-04-21 02:46 | 46.83867 | -3.32612 | 37096 ft | 429 kts | 182° |
| 2026-04-21 02:47 | 46.77793 | -3.32210 | 37086 ft | 429 kts | 183° |
| 2026-04-21 02:47 | 46.71692 | -3.31804 | 37075 ft | 428 kts | 183° |
| 2026-04-21 02:48 | 46.65625 | -3.31405 | 37074 ft | 428 kts | 183° |
| 2026-04-21 02:48 | 46.59554 | -3.31006 | 37074 ft | 427 kts | 182° |
| 2026-04-21 02:49 | 46.53527 | -3.30614 | 37074 ft | 428 kts | 182° |
| 2026-04-21 02:49 | 46.47445 | -3.30211 | 37074 ft | 428 kts | 183° |
| 2026-04-21 02:50 | 46.41392 | -3.29816 | 37073 ft | 427 kts | 183° |
| 2026-04-21 02:50 | 46.35348 | -3.29422 | 37074 ft | 427 kts | 183° |
| 2026-04-21 02:51 | 46.29277 | -3.29028 | 37074 ft | 427 kts | 183° |
| 2026-04-21 02:51 | 46.23243 | -3.28637 | 37074 ft | 427 kts | 183° |
| 2026-04-21 02:52 | 46.17193 | -3.28245 | 37065 ft | 426 kts | 183° |
| 2026-04-21 02:52 | 46.11139 | -3.27853 | 37055 ft | 426 kts | 183° |
| 2026-04-21 02:53 | 46.05093 | -3.27463 | 37046 ft | 426 kts | 183° |
| 2026-04-21 02:53 | 45.99038 | -3.27073 | 37047 ft | 426 kts | 183° |
| 2026-04-21 02:54 | 45.93010 | -3.26684 | 37046 ft | 425 kts | 183° |
| 2026-04-21 02:54 | 45.86967 | -3.26298 | 37047 ft | 425 kts | 183° |
| 2026-04-21 02:55 | 45.80933 | -3.25913 | 37047 ft | 426 kts | 183° |
| 2026-04-21 02:55 | 45.74874 | -3.25527 | 37047 ft | 426 kts | 183° |
| 2026-04-21 02:56 | 45.68838 | -3.25143 | 37047 ft | 425 kts | 183° |
| 2026-04-21 02:56 | 45.59788 | -3.24568 | 37047 ft | 425 kts | 183° |
| 2026-04-21 02:57 | 45.53756 | -3.24187 | 37030 ft | 426 kts | 183° |
| 2026-04-21 02:57 | 45.47732 | -3.23808 | 37010 ft | 426 kts | 183° |
| 2026-04-21 02:58 | 45.41703 | -3.23425 | 36992 ft | 425 kts | 183° |
| 2026-04-21 02:58 | 45.35654 | -3.23045 | 36993 ft | 425 kts | 183° |
| 2026-04-21 02:59 | 45.29660 | -3.22669 | 36993 ft | 426 kts | 183° |
| 2026-04-21 02:59 | 45.23609 | -3.22290 | 36993 ft | 426 kts | 183° |
| 2026-04-21 03:00 | 45.17550 | -3.21911 | 36993 ft | 426 kts | 183° |
| 2026-04-21 03:00 | 45.11492 | -3.21536 | 36993 ft | 426 kts | 183° |
| 2026-04-21 03:01 | 45.05490 | -3.21160 | 36685 ft | 422 kts | 183° |
| 2026-04-21 03:01 | 45.02478 | -3.20971 | 35987 ft | 424 kts | 183° |
| 2026-04-21 03:01 | 44.99468 | -3.20783 | 35314 ft | 424 kts | 183° |
| 2026-04-21 03:02 | 44.96462 | -3.20596 | 34703 ft | 422 kts | 183° |
| 2026-04-21 03:02 | 44.93485 | -3.20407 | 34242 ft | 417 kts | 183° |
| 2026-04-21 03:02 | 44.90555 | -3.20224 | 33746 ft | 413 kts | 183° |
| 2026-04-21 03:02 | 44.87626 | -3.20046 | 33248 ft | 409 kts | 183° |
| 2026-04-21 03:03 | 44.84707 | -3.19871 | 32755 ft | 406 kts | 183° |
| 2026-04-21 03:03 | 44.81878 | -3.19698 | 32273 ft | 402 kts | 183° |
| 2026-04-21 03:03 | 44.79043 | -3.19524 | 31791 ft | 399 kts | 182° |
| 2026-04-21 03:03 | 44.76197 | -3.19351 | 31302 ft | 395 kts | 182° |
| 2026-04-21 03:04 | 44.73417 | -3.19182 | 30832 ft | 392 kts | 182° |
| 2026-04-21 03:04 | 44.70650 | -3.19012 | 30357 ft | 388 kts | 182° |
| 2026-04-21 03:04 | 44.67897 | -3.18843 | 29884 ft | 385 kts | 182° |
| 2026-04-21 03:04 | 44.65178 | -3.18676 | 29416 ft | 382 kts | 182° |
| 2026-04-21 03:05 | 44.62485 | -3.18511 | 28951 ft | 379 kts | 182° |
| 2026-04-21 03:05 | 44.59798 | -3.18346 | 28488 ft | 376 kts | 182° |
| 2026-04-21 03:05 | 44.57126 | -3.18182 | 28028 ft | 373 kts | 182° |
| 2026-04-21 03:05 | 44.54522 | -3.18023 | 27583 ft | 370 kts | 181° |
| 2026-04-21 03:06 | 44.51892 | -3.17864 | 27123 ft | 367 kts | 181° |
| 2026-04-21 03:06 | 44.49288 | -3.17706 | 26669 ft | 364 kts | 181° |
| 2026-04-21 03:06 | 44.46703 | -3.17548 | 26222 ft | 361 kts | 181° |
| 2026-04-21 03:06 | 44.44160 | -3.17393 | 25777 ft | 359 kts | 181° |
| 2026-04-21 03:07 | 44.41605 | -3.17237 | 25328 ft | 356 kts | 181° |
| 2026-04-21 03:07 | 44.39101 | -3.17084 | 24889 ft | 354 kts | 181° |
| 2026-04-21 03:07 | 44.36586 | -3.16931 | 24444 ft | 351 kts | 181° |
| 2026-04-21 03:07 | 44.34127 | -3.16782 | 24011 ft | 349 kts | 181° |
| 2026-04-21 03:08 | 44.31648 | -3.16631 | 23570 ft | 347 kts | 181° |
| 2026-04-21 03:08 | 44.29197 | -3.16480 | 23139 ft | 344 kts | 181° |
| 2026-04-21 03:08 | 44.26738 | -3.16332 | 22709 ft | 342 kts | 181° |
| 2026-04-21 03:08 | 44.24328 | -3.16186 | 22285 ft | 339 kts | 181° |
| 2026-04-21 03:09 | 44.21914 | -3.16038 | 21864 ft | 337 kts | 181° |
| 2026-04-21 03:09 | 44.19558 | -3.15895 | 21451 ft | 335 kts | 181° |
| 2026-04-21 03:09 | 44.17173 | -3.15750 | 21032 ft | 333 kts | 181° |
| 2026-04-21 03:09 | 44.14825 | -3.15612 | 20617 ft | 330 kts | 181° |
| 2026-04-21 03:10 | 44.12472 | -3.15470 | 20203 ft | 328 kts | 180° |
| 2026-04-21 03:10 | 44.10172 | -3.15334 | 19799 ft | 326 kts | 181° |
| 2026-04-21 03:10 | 44.07851 | -3.15431 | 19385 ft | 322 kts | 189° |
| 2026-04-21 03:10 | 44.05664 | -3.16094 | 19005 ft | 316 kts | 202° |
| 2026-04-21 03:11 | 44.03627 | -3.17422 | 18937 ft | 315 kts | 213° |
| 2026-04-21 03:11 | 44.01804 | -3.19234 | 18943 ft | 320 kts | 222° |
| 2026-04-21 03:11 | 44.00087 | -3.21362 | 18937 ft | 320 kts | 224° |
| 2026-04-21 03:11 | 43.98431 | -3.23490 | 18937 ft | 319 kts | 224° |
| 2026-04-21 03:12 | 43.96744 | -3.25642 | 18938 ft | 318 kts | 224° |
| 2026-04-21 03:12 | 43.95084 | -3.27744 | 18937 ft | 318 kts | 224° |
| 2026-04-21 03:12 | 43.93431 | -3.29832 | 18827 ft | 310 kts | 224° |
| 2026-04-21 03:12 | 43.91811 | -3.31876 | 18436 ft | 308 kts | 224° |
| 2026-04-21 03:13 | 43.90184 | -3.33918 | 18023 ft | 306 kts | 224° |
| 2026-04-21 03:13 | 43.88578 | -3.35941 | 17619 ft | 304 kts | 224° |
| 2026-04-21 03:13 | 43.86987 | -3.37945 | 17231 ft | 302 kts | 224° |
| 2026-04-21 03:13 | 43.85397 | -3.39947 | 16844 ft | 300 kts | 224° |
| 2026-04-21 03:14 | 43.83819 | -3.41929 | 16458 ft | 298 kts | 224° |
| 2026-04-21 03:14 | 43.82246 | -3.43903 | 16076 ft | 296 kts | 224° |
| 2026-04-21 03:14 | 43.80701 | -3.45841 | 15697 ft | 294 kts | 224° |
| 2026-04-21 03:14 | 43.79174 | -3.47757 | 15326 ft | 292 kts | 224° |
| 2026-04-21 03:15 | 43.77633 | -3.49686 | 14951 ft | 290 kts | 224° |
| 2026-04-21 03:15 | 43.76102 | -3.51600 | 14577 ft | 288 kts | 224° |
| 2026-04-21 03:15 | 43.74591 | -3.53489 | 14208 ft | 286 kts | 224° |
| 2026-04-21 03:15 | 43.73089 | -3.55368 | 13841 ft | 285 kts | 224° |
| 2026-04-21 03:16 | 43.71603 | -3.57223 | 13477 ft | 283 kts | 224° |
| 2026-04-21 03:16 | 43.70110 | -3.59084 | 13111 ft | 281 kts | 224° |
| 2026-04-21 03:16 | 43.68636 | -3.60921 | 12750 ft | 280 kts | 224° |
| 2026-04-21 03:16 | 43.67172 | -3.62747 | 12390 ft | 278 kts | 223° |
| 2026-04-21 03:17 | 43.65707 | -3.64572 | 12033 ft | 276 kts | 223° |
| 2026-04-21 03:17 | 43.64247 | -3.66387 | 11693 ft | 274 kts | 223° |
| 2026-04-21 03:17 | 43.63015 | -3.68453 | 11480 ft | 278 kts | 245° |
| 2026-04-21 03:17 | 43.62632 | -3.71092 | 11493 ft | 284 kts | 272° |
| 2026-04-21 03:18 | 43.63174 | -3.73790 | 11066 ft | 289 kts | 294° |
| 2026-04-21 03:18 | 43.64086 | -3.76282 | 10700 ft | 287 kts | 295° |
| 2026-04-21 03:18 | 43.64980 | -3.78815 | 10322 ft | 285 kts | 292° |
| 2026-04-21 03:18 | 43.65665 | -3.81385 | 10114 ft | 277 kts | 285° |
| 2026-04-21 03:19 | 43.66145 | -3.83997 | 9783 ft | 274 kts | 281° |
| 2026-04-21 03:19 | 43.66478 | -3.86657 | 9409 ft | 274 kts | 275° |
| 2026-04-21 03:19 | 43.66620 | -3.89316 | 9049 ft | 273 kts | 270° |
| 2026-04-21 03:19 | 43.66594 | -3.91963 | 8700 ft | 272 kts | 265° |
| 2026-04-21 03:20 | 43.66399 | -3.94615 | 8351 ft | 270 kts | 260° |
| 2026-04-21 03:20 | 43.66040 | -3.97187 | 8006 ft | 269 kts | 255° |
| 2026-04-21 03:20 | 43.65518 | -3.99727 | 7657 ft | 268 kts | 250° |
| 2026-04-21 03:20 | 43.64841 | -4.02175 | 7313 ft | 266 kts | 245° |
| 2026-04-21 03:21 | 43.64023 | -4.04503 | 6970 ft | 265 kts | 240° |
| 2026-04-21 03:21 | 43.63053 | -4.06741 | 6627 ft | 264 kts | 235° |
| 2026-04-21 03:21 | 43.61969 | -4.08819 | 6134 ft | 262 kts | 230° |
| 2026-04-21 03:21 | 43.60791 | -4.10723 | 5751 ft | 253 kts | 226° |
| 2026-04-21 03:22 | 43.59528 | -4.12467 | 5300 ft | 250 kts | 221° |
| 2026-04-21 03:22 | 43.58228 | -4.13999 | 4980 ft | 237 kts | 216° |
| 2026-04-21 03:22 | 43.56896 | -4.15338 | 4637 ft | 227 kts | 212° |
| 2026-04-21 03:22 | 43.55560 | -4.16472 | 4441 ft | 214 kts | 207° |
| 2026-04-21 03:23 | 43.54189 | -4.17171 | 4267 ft | 202 kts | 179° |
| 2026-04-21 03:23 | 43.52903 | -4.16602 | 4252 ft | 189 kts | 141° |
| 2026-04-21 03:23 | 43.52000 | -4.15279 | 4200 ft | 191 kts | 121° |
| 2026-04-21 03:23 | 43.51463 | -4.13583 | 4115 ft | 189 kts | 107° |
| 2026-04-21 03:24 | 43.51035 | -4.11834 | 4037 ft | 189 kts | 110° |
| 2026-04-21 03:24 | 43.50534 | -4.10092 | 3808 ft | 192 kts | 112° |
| 2026-04-21 03:24 | 43.50005 | -4.08354 | 3443 ft | 196 kts | 112° |
| 2026-04-21 03:24 | 43.49467 | -4.06575 | 3134 ft | 196 kts | 111° |
| 2026-04-21 03:25 | 43.48950 | -4.04832 | 2857 ft | 186 kts | 111° |
| 2026-04-21 03:25 | 43.48468 | -4.03191 | 2522 ft | 176 kts | 111° |
| 2026-04-21 03:25 | 43.48018 | -4.01654 | 2264 ft | 165 kts | 111° |
| 2026-04-21 03:25 | 43.47594 | -4.00211 | 2049 ft | 153 kts | 111° |
| 2026-04-21 03:26 | 43.47211 | -3.98880 | 1806 ft | 142 kts | 110° |
| 2026-04-21 03:26 | 43.46860 | -3.97588 | 1725 ft | 140 kts | 109° |
| 2026-04-21 03:26 | 43.46515 | -3.96292 | 1686 ft | 144 kts | 109° |
| 2026-04-21 03:26 | 43.46166 | -3.94975 | 1583 ft | 143 kts | 109° |
| 2026-04-21 03:27 | 43.45813 | -3.93646 | 1532 ft | 147 kts | 109° |
| 2026-04-21 03:27 | 43.45456 | -3.92307 | 1457 ft | 147 kts | 109° |
| 2026-04-21 03:27 | 43.45098 | -3.90967 | 1277 ft | 149 kts | 109° |
| 2026-04-21 03:27 | 43.44741 | -3.89623 | 1003 ft | 144 kts | 109° |
| 2026-04-21 03:28 | 43.44392 | -3.88314 | 850 ft | 144 kts | 109° |
| 2026-04-21 03:28 | 43.44041 | -3.86991 | 631 ft | 145 kts | 109° |
| 2026-04-21 03:28 | 43.43684 | -3.85653 | 383 ft | 146 kts | 109° |
| 2026-04-21 03:28 | 43.43306 | -3.84318 | 215 ft | 143 kts | 111° |
| 2026-04-21 03:29 | 43.42999 | -3.83010 | 16 ft | 138 kts | 101° |
| 2026-04-21 03:29 | 43.42876 | -3.81754 | 10 ft | 78 kts | 91° |
| 2026-04-21 03:29 | 43.42863 | -3.81529 | 8 ft | 0 kts | 88° |